sensor_id;sensor_type;location;lat;lon;timestamp;P1;durP1;ratioP1;P2;durP2;ratioP2
51036;SDS011;37064;59.346;18.058;2023-02-11T00:01:33;2.65;;;0.90;;
51036;SDS011;37064;59.346;18.058;2023-02-11T00:03:59;2.78;;;0.82;;
51036;SDS011;37064;59.346;18.058;2023-02-11T00:06:26;1.67;;;0.98;;
51036;SDS011;37064;59.346;18.058;2023-02-11T00:08:53;1.52;;;0.80;;
51036;SDS011;37064;59.346;18.058;2023-02-11T00:11:20;1.27;;;0.82;;
51036;SDS011;37064;59.346;18.058;2023-02-11T00:13:46;3.05;;;1.00;;
51036;SDS011;37064;59.346;18.058;2023-02-11T00:16:21;2.38;;;1.08;;
51036;SDS011;37064;59.346;18.058;2023-02-11T00:18:48;3.40;;;0.95;;
51036;SDS011;37064;59.346;18.058;2023-02-11T00:21:18;2.90;;;1.00;;
51036;SDS011;37064;59.346;18.058;2023-02-11T00:23:45;1.55;;;0.93;;
51036;SDS011;37064;59.346;18.058;2023-02-11T00:26:12;2.33;;;0.85;;
51036;SDS011;37064;59.346;18.058;2023-02-11T00:28:39;1.48;;;0.88;;
51036;SDS011;37064;59.346;18.058;2023-02-11T00:31:05;1.35;;;0.80;;
51036;SDS011;37064;59.346;18.058;2023-02-11T00:33:31;1.33;;;0.95;;
51036;SDS011;37064;59.346;18.058;2023-02-11T00:35:57;1.88;;;1.10;;
51036;SDS011;37064;59.346;18.058;2023-02-11T00:38:23;2.35;;;1.00;;
51036;SDS011;37064;59.346;18.058;2023-02-11T00:40:49;2.15;;;0.95;;
51036;SDS011;37064;59.346;18.058;2023-02-11T00:43:15;1.67;;;1.30;;
51036;SDS011;37064;59.346;18.058;2023-02-11T00:45:41;3.83;;;1.00;;
51036;SDS011;37064;59.346;18.058;2023-02-11T00:48:07;1.70;;;1.00;;
51036;SDS011;37064;59.346;18.058;2023-02-11T00:50:33;2.42;;;0.95;;
51036;SDS011;37064;59.346;18.058;2023-02-11T00:52:59;1.60;;;1.30;;
51036;SDS011;37064;59.346;18.058;2023-02-11T00:55:25;3.55;;;1.40;;
51036;SDS011;37064;59.346;18.058;2023-02-11T00:57:51;4.78;;;1.85;;
51036;SDS011;37064;59.346;18.058;2023-02-11T01:00:17;5.20;;;2.10;;
51036;SDS011;37064;59.346;18.058;2023-02-11T01:02:43;2.83;;;1.95;;
51036;SDS011;37064;59.346;18.058;2023-02-11T01:05:09;1.88;;;1.15;;
51036;SDS011;37064;59.346;18.058;2023-02-11T01:07:35;3.20;;;1.15;;
51036;SDS011;37064;59.346;18.058;2023-02-11T01:10:01;6.75;;;1.63;;
51036;SDS011;37064;59.346;18.058;2023-02-11T01:12:28;1.58;;;0.90;;
51036;SDS011;37064;59.346;18.058;2023-02-11T01:14:54;2.50;;;1.20;;
51036;SDS011;37064;59.346;18.058;2023-02-11T01:17:20;3.28;;;1.52;;
51036;SDS011;37064;59.346;18.058;2023-02-11T01:19:46;2.53;;;1.17;;
51036;SDS011;37064;59.346;18.058;2023-02-11T01:22:12;2.20;;;1.10;;
51036;SDS011;37064;59.346;18.058;2023-02-11T01:24:38;2.10;;;0.98;;
51036;SDS011;37064;59.346;18.058;2023-02-11T01:27:04;5.32;;;1.20;;
51036;SDS011;37064;59.346;18.058;2023-02-11T01:29:30;2.42;;;1.50;;
51036;SDS011;37064;59.346;18.058;2023-02-11T01:31:56;2.25;;;1.20;;
51036;SDS011;37064;59.346;18.058;2023-02-11T01:34:22;3.20;;;1.30;;
51036;SDS011;37064;59.346;18.058;2023-02-11T01:36:48;1.42;;;1.00;;
51036;SDS011;37064;59.346;18.058;2023-02-11T01:39:14;2.58;;;1.13;;
51036;SDS011;37064;59.346;18.058;2023-02-11T01:41:40;3.13;;;1.52;;
51036;SDS011;37064;59.346;18.058;2023-02-11T01:46:47;1.90;;;1.10;;
51036;SDS011;37064;59.346;18.058;2023-02-11T01:49:14;2.15;;;1.50;;
51036;SDS011;37064;59.346;18.058;2023-02-11T01:51:49;4.20;;;1.45;;
51036;SDS011;37064;59.346;18.058;2023-02-11T01:54:17;1.65;;;1.23;;
51036;SDS011;37064;59.346;18.058;2023-02-11T01:57:03;2.00;;;0.90;;
51036;SDS011;37064;59.346;18.058;2023-02-11T02:02:22;6.93;;;1.05;;
51036;SDS011;37064;59.346;18.058;2023-02-11T02:04:57;4.55;;;1.65;;
51036;SDS011;37064;59.346;18.058;2023-02-11T02:07:35;3.83;;;1.20;;
51036;SDS011;37064;59.346;18.058;2023-02-11T02:12:29;3.25;;;1.10;;
51036;SDS011;37064;59.346;18.058;2023-02-11T02:15:10;1.73;;;1.10;;
51036;SDS011;37064;59.346;18.058;2023-02-11T02:17:45;2.90;;;1.08;;
51036;SDS011;37064;59.346;18.058;2023-02-11T02:43:28;2.50;;;1.10;;
51036;SDS011;37064;59.346;18.058;2023-02-11T02:45:55;2.80;;;1.10;;
51036;SDS011;37064;59.346;18.058;2023-02-11T02:48:33;2.63;;;1.42;;
51036;SDS011;37064;59.346;18.058;2023-02-11T02:56:16;4.60;;;1.27;;
51036;SDS011;37064;59.346;18.058;2023-02-11T03:03:58;2.00;;;1.08;;
51036;SDS011;37064;59.346;18.058;2023-02-11T03:06:30;2.42;;;1.08;;
51036;SDS011;37064;59.346;18.058;2023-02-11T03:11:42;1.63;;;0.90;;
51036;SDS011;37064;59.346;18.058;2023-02-11T03:14:09;1.85;;;1.55;;
51036;SDS011;37064;59.346;18.058;2023-02-11T03:16:35;1.27;;;0.90;;
51036;SDS011;37064;59.346;18.058;2023-02-11T03:19:14;2.47;;;1.15;;
51036;SDS011;37064;59.346;18.058;2023-02-11T03:21:42;2.42;;;1.17;;
51036;SDS011;37064;59.346;18.058;2023-02-11T03:24:13;1.90;;;1.30;;
51036;SDS011;37064;59.346;18.058;2023-02-11T03:29:15;2.00;;;1.10;;
51036;SDS011;37064;59.346;18.058;2023-02-11T03:34:10;2.60;;;1.10;;
51036;SDS011;37064;59.346;18.058;2023-02-11T03:39:10;2.65;;;0.75;;
51036;SDS011;37064;59.346;18.058;2023-02-11T03:41:36;1.35;;;0.70;;
51036;SDS011;37064;59.346;18.058;2023-02-11T03:44:03;2.10;;;0.50;;
51036;SDS011;37064;59.346;18.058;2023-02-11T03:46:31;0.82;;;0.57;;
51036;SDS011;37064;59.346;18.058;2023-02-11T03:49:00;0.80;;;0.50;;
51036;SDS011;37064;59.346;18.058;2023-02-11T03:53:54;2.10;;;1.17;;
51036;SDS011;37064;59.346;18.058;2023-02-11T03:56:22;1.58;;;0.60;;
51036;SDS011;37064;59.346;18.058;2023-02-11T03:58:50;2.63;;;0.57;;
51036;SDS011;37064;59.346;18.058;2023-02-11T04:01:16;2.67;;;0.57;;
51036;SDS011;37064;59.346;18.058;2023-02-11T04:03:42;0.70;;;0.50;;
51036;SDS011;37064;59.346;18.058;2023-02-11T04:06:08;1.20;;;0.77;;
51036;SDS011;37064;59.346;18.058;2023-02-11T04:08:34;0.70;;;0.40;;
51036;SDS011;37064;59.346;18.058;2023-02-11T04:11:00;1.27;;;0.65;;
51036;SDS011;37064;59.346;18.058;2023-02-11T04:13:26;0.82;;;0.60;;
51036;SDS011;37064;59.346;18.058;2023-02-11T04:15:52;3.15;;;0.50;;
51036;SDS011;37064;59.346;18.058;2023-02-11T04:18:18;2.42;;;0.47;;
51036;SDS011;37064;59.346;18.058;2023-02-11T04:20:44;0.77;;;0.60;;
51036;SDS011;37064;59.346;18.058;2023-02-11T04:23:10;1.45;;;0.50;;
51036;SDS011;37064;59.346;18.058;2023-02-11T04:25:36;1.75;;;0.47;;
51036;SDS011;37064;59.346;18.058;2023-02-11T04:28:02;0.52;;;0.40;;
51036;SDS011;37064;59.346;18.058;2023-02-11T04:30:28;0.85;;;0.50;;
51036;SDS011;37064;59.346;18.058;2023-02-11T04:32:54;1.98;;;0.50;;
51036;SDS011;37064;59.346;18.058;2023-02-11T04:35:20;0.80;;;0.70;;
51036;SDS011;37064;59.346;18.058;2023-02-11T04:37:46;2.38;;;1.10;;
51036;SDS011;37064;59.346;18.058;2023-02-11T04:40:12;1.10;;;0.70;;
51036;SDS011;37064;59.346;18.058;2023-02-11T04:42:38;0.63;;;0.40;;
51036;SDS011;37064;59.346;18.058;2023-02-11T04:45:04;0.63;;;0.45;;
51036;SDS011;37064;59.346;18.058;2023-02-11T04:47:31;1.25;;;0.68;;
51036;SDS011;37064;59.346;18.058;2023-02-11T04:49:57;2.35;;;0.70;;
51036;SDS011;37064;59.346;18.058;2023-02-11T04:52:23;3.38;;;0.60;;
51036;SDS011;37064;59.346;18.058;2023-02-11T04:54:49;1.90;;;0.40;;
51036;SDS011;37064;59.346;18.058;2023-02-11T04:57:15;0.75;;;0.50;;
51036;SDS011;37064;59.346;18.058;2023-02-11T04:59:41;0.80;;;0.50;;
51036;SDS011;37064;59.346;18.058;2023-02-11T05:02:07;1.58;;;0.60;;
51036;SDS011;37064;59.346;18.058;2023-02-11T05:04:33;1.27;;;0.50;;
51036;SDS011;37064;59.346;18.058;2023-02-11T05:06:59;1.08;;;0.50;;
51036;SDS011;37064;59.346;18.058;2023-02-11T05:09:25;1.48;;;0.60;;
51036;SDS011;37064;59.346;18.058;2023-02-11T05:11:51;0.75;;;0.40;;
51036;SDS011;37064;59.346;18.058;2023-02-11T05:14:17;1.33;;;0.50;;
51036;SDS011;37064;59.346;18.058;2023-02-11T05:16:44;1.45;;;0.93;;
51036;SDS011;37064;59.346;18.058;2023-02-11T05:19:10;1.55;;;0.38;;
51036;SDS011;37064;59.346;18.058;2023-02-11T05:21:36;2.83;;;0.40;;
51036;SDS011;37064;59.346;18.058;2023-02-11T05:24:02;1.05;;;0.68;;
51036;SDS011;37064;59.346;18.058;2023-02-11T05:26:28;1.23;;;0.40;;
51036;SDS011;37064;59.346;18.058;2023-02-11T05:28:54;2.63;;;0.50;;
51036;SDS011;37064;59.346;18.058;2023-02-11T05:31:20;0.60;;;0.47;;
51036;SDS011;37064;59.346;18.058;2023-02-11T05:33:46;1.25;;;0.40;;
51036;SDS011;37064;59.346;18.058;2023-02-11T05:36:12;1.65;;;0.55;;
51036;SDS011;37064;59.346;18.058;2023-02-11T05:38:39;1.02;;;0.60;;
51036;SDS011;37064;59.346;18.058;2023-02-11T05:41:06;1.30;;;0.68;;
51036;SDS011;37064;59.346;18.058;2023-02-11T05:43:32;1.30;;;0.50;;
51036;SDS011;37064;59.346;18.058;2023-02-11T05:46:02;0.82;;;0.47;;
51036;SDS011;37064;59.346;18.058;2023-02-11T05:48:28;1.83;;;0.57;;
51036;SDS011;37064;59.346;18.058;2023-02-11T05:50:54;1.00;;;0.70;;
51036;SDS011;37064;59.346;18.058;2023-02-11T05:53:20;2.38;;;0.70;;
51036;SDS011;37064;59.346;18.058;2023-02-11T05:55:47;1.05;;;0.50;;
51036;SDS011;37064;59.346;18.058;2023-02-11T05:58:13;0.60;;;0.43;;
51036;SDS011;37064;59.346;18.058;2023-02-11T06:00:39;0.77;;;0.60;;
51036;SDS011;37064;59.346;18.058;2023-02-11T06:03:05;1.83;;;0.73;;
51036;SDS011;37064;59.346;18.058;2023-02-11T06:05:31;2.38;;;0.60;;
51036;SDS011;37064;59.346;18.058;2023-02-11T06:07:57;3.80;;;0.63;;
51036;SDS011;37064;59.346;18.058;2023-02-11T06:10:23;2.05;;;0.43;;
51036;SDS011;37064;59.346;18.058;2023-02-11T06:12:49;2.08;;;0.70;;
51036;SDS011;37064;59.346;18.058;2023-02-11T06:15:15;1.92;;;0.70;;
51036;SDS011;37064;59.346;18.058;2023-02-11T06:17:41;3.08;;;0.55;;
51036;SDS011;37064;59.346;18.058;2023-02-11T06:20:07;1.90;;;1.02;;
51036;SDS011;37064;59.346;18.058;2023-02-11T06:22:34;1.80;;;0.57;;
51036;SDS011;37064;59.346;18.058;2023-02-11T06:25:00;1.00;;;0.90;;
51036;SDS011;37064;59.346;18.058;2023-02-11T06:27:26;2.80;;;1.05;;
51036;SDS011;37064;59.346;18.058;2023-02-11T06:29:52;4.10;;;0.80;;
51036;SDS011;37064;59.346;18.058;2023-02-11T06:32:19;1.25;;;0.75;;
51036;SDS011;37064;59.346;18.058;2023-02-11T06:34:45;1.85;;;0.70;;
51036;SDS011;37064;59.346;18.058;2023-02-11T06:37:11;1.85;;;0.77;;
51036;SDS011;37064;59.346;18.058;2023-02-11T06:39:37;1.65;;;0.65;;
51036;SDS011;37064;59.346;18.058;2023-02-11T06:42:03;3.33;;;0.70;;
51036;SDS011;37064;59.346;18.058;2023-02-11T06:44:29;1.65;;;0.63;;
51036;SDS011;37064;59.346;18.058;2023-02-11T06:46:56;1.58;;;0.57;;
51036;SDS011;37064;59.346;18.058;2023-02-11T06:49:22;2.00;;;0.70;;
51036;SDS011;37064;59.346;18.058;2023-02-11T06:51:48;3.38;;;0.98;;
51036;SDS011;37064;59.346;18.058;2023-02-11T06:54:14;3.13;;;1.10;;
51036;SDS011;37064;59.346;18.058;2023-02-11T06:56:40;2.47;;;0.73;;
51036;SDS011;37064;59.346;18.058;2023-02-11T06:59:06;1.55;;;0.65;;
51036;SDS011;37064;59.346;18.058;2023-02-11T07:01:32;1.98;;;0.60;;
51036;SDS011;37064;59.346;18.058;2023-02-11T07:03:58;2.15;;;0.65;;
51036;SDS011;37064;59.346;18.058;2023-02-11T07:06:25;4.00;;;1.20;;
51036;SDS011;37064;59.346;18.058;2023-02-11T07:08:51;4.53;;;1.35;;
51036;SDS011;37064;59.346;18.058;2023-02-11T07:11:19;3.97;;;1.40;;
51036;SDS011;37064;59.346;18.058;2023-02-11T07:13:48;1.50;;;0.70;;
51036;SDS011;37064;59.346;18.058;2023-02-11T07:16:14;3.72;;;0.95;;
51036;SDS011;37064;59.346;18.058;2023-02-11T07:18:41;4.22;;;0.82;;
51036;SDS011;37064;59.346;18.058;2023-02-11T07:21:08;1.63;;;0.80;;
51036;SDS011;37064;59.346;18.058;2023-02-11T07:23:35;2.25;;;0.70;;
51036;SDS011;37064;59.346;18.058;2023-02-11T07:26:08;3.53;;;0.70;;
51036;SDS011;37064;59.346;18.058;2023-02-11T07:28:35;1.92;;;0.75;;
51036;SDS011;37064;59.346;18.058;2023-02-11T07:31:08;2.25;;;0.70;;
51036;SDS011;37064;59.346;18.058;2023-02-11T07:33:35;2.58;;;0.90;;
51036;SDS011;37064;59.346;18.058;2023-02-11T07:36:01;4.65;;;0.93;;
51036;SDS011;37064;59.346;18.058;2023-02-11T07:38:27;4.78;;;1.00;;
51036;SDS011;37064;59.346;18.058;2023-02-11T07:40:53;5.85;;;1.10;;
51036;SDS011;37064;59.346;18.058;2023-02-11T07:43:19;1.95;;;1.10;;
51036;SDS011;37064;59.346;18.058;2023-02-11T07:45:45;0.93;;;0.80;;
51036;SDS011;37064;59.346;18.058;2023-02-11T07:48:11;3.92;;;1.20;;
51036;SDS011;37064;59.346;18.058;2023-02-11T07:50:37;1.85;;;0.73;;
51036;SDS011;37064;59.346;18.058;2023-02-11T07:53:03;3.10;;;1.10;;
51036;SDS011;37064;59.346;18.058;2023-02-11T07:55:29;1.25;;;0.85;;
51036;SDS011;37064;59.346;18.058;2023-02-11T07:57:56;2.72;;;0.90;;
51036;SDS011;37064;59.346;18.058;2023-02-11T08:00:22;3.30;;;1.58;;
51036;SDS011;37064;59.346;18.058;2023-02-11T08:02:48;2.90;;;1.10;;
51036;SDS011;37064;59.346;18.058;2023-02-11T08:05:14;3.00;;;0.93;;
51036;SDS011;37064;59.346;18.058;2023-02-11T08:07:40;2.13;;;0.90;;
51036;SDS011;37064;59.346;18.058;2023-02-11T08:10:06;3.75;;;1.38;;
51036;SDS011;37064;59.346;18.058;2023-02-11T08:12:32;2.63;;;1.63;;
51036;SDS011;37064;59.346;18.058;2023-02-11T08:14:58;4.03;;;1.10;;
51036;SDS011;37064;59.346;18.058;2023-02-11T08:17:24;2.05;;;0.82;;
51036;SDS011;37064;59.346;18.058;2023-02-11T08:19:50;4.75;;;1.33;;
51036;SDS011;37064;59.346;18.058;2023-02-11T08:22:16;5.13;;;1.40;;
51036;SDS011;37064;59.346;18.058;2023-02-11T08:24:42;5.97;;;1.38;;
51036;SDS011;37064;59.346;18.058;2023-02-11T08:27:08;3.83;;;1.90;;
51036;SDS011;37064;59.346;18.058;2023-02-11T08:29:34;3.83;;;0.93;;
51036;SDS011;37064;59.346;18.058;2023-02-11T08:32:00;2.70;;;1.00;;
51036;SDS011;37064;59.346;18.058;2023-02-11T08:34:27;3.67;;;1.23;;
51036;SDS011;37064;59.346;18.058;2023-02-11T08:36:53;3.40;;;1.48;;
51036;SDS011;37064;59.346;18.058;2023-02-11T08:39:20;2.22;;;1.00;;
51036;SDS011;37064;59.346;18.058;2023-02-11T08:41:47;2.97;;;1.02;;
51036;SDS011;37064;59.346;18.058;2023-02-11T08:44:14;5.60;;;1.35;;
51036;SDS011;37064;59.346;18.058;2023-02-11T08:46:40;2.80;;;1.20;;
51036;SDS011;37064;59.346;18.058;2023-02-11T08:49:06;6.80;;;1.58;;
51036;SDS011;37064;59.346;18.058;2023-02-11T08:51:32;3.38;;;1.15;;
51036;SDS011;37064;59.346;18.058;2023-02-11T08:53:59;6.03;;;1.10;;
51036;SDS011;37064;59.346;18.058;2023-02-11T08:56:25;2.22;;;1.02;;
51036;SDS011;37064;59.346;18.058;2023-02-11T08:58:51;5.75;;;1.60;;
51036;SDS011;37064;59.346;18.058;2023-02-11T09:01:19;4.45;;;1.45;;
51036;SDS011;37064;59.346;18.058;2023-02-11T09:03:45;4.55;;;1.35;;
51036;SDS011;37064;59.346;18.058;2023-02-11T09:06:11;5.05;;;1.40;;
51036;SDS011;37064;59.346;18.058;2023-02-11T09:08:39;6.30;;;1.48;;
51036;SDS011;37064;59.346;18.058;2023-02-11T09:11:05;7.68;;;1.67;;
51036;SDS011;37064;59.346;18.058;2023-02-11T09:13:32;2.50;;;0.88;;
51036;SDS011;37064;59.346;18.058;2023-02-11T09:15:59;3.67;;;1.70;;
51036;SDS011;37064;59.346;18.058;2023-02-11T09:18:25;6.88;;;0.80;;
51036;SDS011;37064;59.346;18.058;2023-02-11T09:20:52;5.97;;;1.20;;
51036;SDS011;37064;59.346;18.058;2023-02-11T09:23:18;3.78;;;0.70;;
51036;SDS011;37064;59.346;18.058;2023-02-11T09:25:44;2.80;;;1.40;;
51036;SDS011;37064;59.346;18.058;2023-02-11T09:28:10;3.35;;;1.25;;
51036;SDS011;37064;59.346;18.058;2023-02-11T09:30:36;5.88;;;1.52;;
51036;SDS011;37064;59.346;18.058;2023-02-11T09:33:02;2.33;;;0.75;;
51036;SDS011;37064;59.346;18.058;2023-02-11T09:35:28;1.77;;;0.73;;
51036;SDS011;37064;59.346;18.058;2023-02-11T09:37:55;2.28;;;0.82;;
51036;SDS011;37064;59.346;18.058;2023-02-11T09:40:21;4.53;;;0.93;;
51036;SDS011;37064;59.346;18.058;2023-02-11T09:43:03;4.38;;;1.00;;
51036;SDS011;37064;59.346;18.058;2023-02-11T09:45:33;2.47;;;0.80;;
51036;SDS011;37064;59.346;18.058;2023-02-11T09:50:32;2.80;;;1.10;;
51036;SDS011;37064;59.346;18.058;2023-02-11T09:55:29;2.55;;;1.08;;
51036;SDS011;37064;59.346;18.058;2023-02-11T09:57:58;2.22;;;0.77;;
51036;SDS011;37064;59.346;18.058;2023-02-11T10:16:06;1.58;;;0.90;;
51036;SDS011;37064;59.346;18.058;2023-02-11T10:18:38;5.47;;;1.10;;
51036;SDS011;37064;59.346;18.058;2023-02-11T10:21:09;2.40;;;0.82;;
51036;SDS011;37064;59.346;18.058;2023-02-11T10:23:38;2.47;;;1.02;;
51036;SDS011;37064;59.346;18.058;2023-02-11T10:26:12;3.13;;;1.15;;
51036;SDS011;37064;59.346;18.058;2023-02-11T10:28:39;5.72;;;1.48;;
51036;SDS011;37064;59.346;18.058;2023-02-11T10:31:15;8.25;;;1.52;;
51036;SDS011;37064;59.346;18.058;2023-02-11T10:34:01;4.40;;;1.00;;
51036;SDS011;37064;59.346;18.058;2023-02-11T10:36:30;7.18;;;1.85;;
51036;SDS011;37064;59.346;18.058;2023-02-11T10:38:58;3.90;;;1.10;;
51036;SDS011;37064;59.346;18.058;2023-02-11T10:41:35;5.15;;;1.67;;
51036;SDS011;37064;59.346;18.058;2023-02-11T10:44:04;4.38;;;0.98;;
51036;SDS011;37064;59.346;18.058;2023-02-11T10:46:31;4.03;;;0.95;;
51036;SDS011;37064;59.346;18.058;2023-02-11T10:48:58;2.58;;;0.90;;
51036;SDS011;37064;59.346;18.058;2023-02-11T10:51:25;2.92;;;0.90;;
51036;SDS011;37064;59.346;18.058;2023-02-11T10:56:35;3.00;;;1.35;;
51036;SDS011;37064;59.346;18.058;2023-02-11T11:01:42;3.20;;;1.08;;
51036;SDS011;37064;59.346;18.058;2023-02-11T11:06:50;2.50;;;0.85;;
51036;SDS011;37064;59.346;18.058;2023-02-11T11:09:29;3.63;;;1.23;;
51036;SDS011;37064;59.346;18.058;2023-02-11T11:11:55;4.65;;;1.10;;
51036;SDS011;37064;59.346;18.058;2023-02-11T11:14:21;4.47;;;1.63;;
51036;SDS011;37064;59.346;18.058;2023-02-11T11:16:53;2.42;;;1.20;;
51036;SDS011;37064;59.346;18.058;2023-02-11T11:19:20;3.00;;;1.02;;
51036;SDS011;37064;59.346;18.058;2023-02-11T11:24:14;2.67;;;1.00;;
51036;SDS011;37064;59.346;18.058;2023-02-11T11:26:45;2.88;;;1.42;;
51036;SDS011;37064;59.346;18.058;2023-02-11T11:29:14;4.25;;;1.05;;
51036;SDS011;37064;59.346;18.058;2023-02-11T11:31:51;5.38;;;0.95;;
51036;SDS011;37064;59.346;18.058;2023-02-11T11:34:31;4.47;;;1.60;;
51036;SDS011;37064;59.346;18.058;2023-02-11T11:36:59;3.78;;;1.20;;
51036;SDS011;37064;59.346;18.058;2023-02-11T11:39:26;4.68;;;0.93;;
51036;SDS011;37064;59.346;18.058;2023-02-11T11:41:57;4.82;;;1.45;;
51036;SDS011;37064;59.346;18.058;2023-02-11T11:44:27;5.38;;;1.35;;
51036;SDS011;37064;59.346;18.058;2023-02-11T11:54:45;2.78;;;0.90;;
51036;SDS011;37064;59.346;18.058;2023-02-11T11:57:17;5.78;;;1.35;;
51036;SDS011;37064;59.346;18.058;2023-02-11T11:59:44;6.85;;;1.48;;
51036;SDS011;37064;59.346;18.058;2023-02-11T12:02:17;4.78;;;1.60;;
51036;SDS011;37064;59.346;18.058;2023-02-11T12:09:53;3.53;;;0.88;;
51036;SDS011;37064;59.346;18.058;2023-02-11T12:17:54;3.78;;;0.95;;
51036;SDS011;37064;59.346;18.058;2023-02-11T12:20:37;2.53;;;1.10;;
51036;SDS011;37064;59.346;18.058;2023-02-11T12:28:13;1.70;;;0.90;;
51036;SDS011;37064;59.346;18.058;2023-02-11T12:30:48;3.13;;;1.00;;
51036;SDS011;37064;59.346;18.058;2023-02-11T12:36:04;6.15;;;0.98;;
51036;SDS011;37064;59.346;18.058;2023-02-11T12:44:11;2.00;;;0.88;;
51036;SDS011;37064;59.346;18.058;2023-02-11T12:46:42;3.17;;;1.10;;
51036;SDS011;37064;59.346;18.058;2023-02-11T12:54:30;5.88;;;1.17;;
51036;SDS011;37064;59.346;18.058;2023-02-11T13:01:57;5.20;;;1.45;;
51036;SDS011;37064;59.346;18.058;2023-02-11T13:04:25;3.22;;;1.10;;
51036;SDS011;37064;59.346;18.058;2023-02-11T13:06:54;1.60;;;0.90;;
51036;SDS011;37064;59.346;18.058;2023-02-11T13:09:25;5.47;;;1.02;;
51036;SDS011;37064;59.346;18.058;2023-02-11T13:11:53;3.90;;;1.88;;
51036;SDS011;37064;59.346;18.058;2023-02-11T13:14:39;3.45;;;0.90;;
51036;SDS011;37064;59.346;18.058;2023-02-11T13:17:11;3.20;;;0.85;;
51036;SDS011;37064;59.346;18.058;2023-02-11T13:32:20;5.90;;;1.33;;
51036;SDS011;37064;59.346;18.058;2023-02-11T13:34:55;5.25;;;1.20;;
51036;SDS011;37064;59.346;18.058;2023-02-11T13:37:23;7.40;;;1.08;;
51036;SDS011;37064;59.346;18.058;2023-02-11T13:42:46;6.90;;;1.23;;
51036;SDS011;37064;59.346;18.058;2023-02-11T13:45:23;6.13;;;1.58;;
51036;SDS011;37064;59.346;18.058;2023-02-11T13:47:59;3.28;;;0.98;;
51036;SDS011;37064;59.346;18.058;2023-02-11T13:50:25;3.85;;;1.35;;
51036;SDS011;37064;59.346;18.058;2023-02-11T13:52:59;6.40;;;1.33;;
51036;SDS011;37064;59.346;18.058;2023-02-11T13:55:26;6.40;;;1.48;;
51036;SDS011;37064;59.346;18.058;2023-02-11T14:06:08;5.65;;;1.08;;
51036;SDS011;37064;59.346;18.058;2023-02-11T14:14:16;3.67;;;1.08;;
51036;SDS011;37064;59.346;18.058;2023-02-11T14:22:04;2.85;;;0.85;;
51036;SDS011;37064;59.346;18.058;2023-02-11T14:32:27;3.05;;;1.10;;
51036;SDS011;37064;59.346;18.058;2023-02-11T14:34:50;2.50;;;1.00;;
51036;SDS011;37064;59.346;18.058;2023-02-11T14:39:53;1.67;;;0.95;;
51036;SDS011;37064;59.346;18.058;2023-02-11T14:42:21;6.07;;;0.75;;
51036;SDS011;37064;59.346;18.058;2023-02-11T14:44:50;4.47;;;1.05;;
51036;SDS011;37064;59.346;18.058;2023-02-11T14:47:17;5.43;;;1.50;;
51036;SDS011;37064;59.346;18.058;2023-02-11T14:49:44;6.45;;;1.65;;
51036;SDS011;37064;59.346;18.058;2023-02-11T14:54:51;2.15;;;0.80;;
51036;SDS011;37064;59.346;18.058;2023-02-11T14:57:21;2.08;;;0.90;;
51036;SDS011;37064;59.346;18.058;2023-02-11T14:59:57;8.85;;;1.35;;
51036;SDS011;37064;59.346;18.058;2023-02-11T15:02:31;1.37;;;0.63;;
51036;SDS011;37064;59.346;18.058;2023-02-11T15:05:13;2.50;;;0.60;;
51036;SDS011;37064;59.346;18.058;2023-02-11T15:07:50;7.43;;;1.33;;
51036;SDS011;37064;59.346;18.058;2023-02-11T15:10:18;3.28;;;1.30;;
51036;SDS011;37064;59.346;18.058;2023-02-11T15:12:45;2.17;;;0.70;;
51036;SDS011;37064;59.346;18.058;2023-02-11T15:15:13;1.73;;;0.80;;
51036;SDS011;37064;59.346;18.058;2023-02-11T15:17:39;3.30;;;0.98;;
51036;SDS011;37064;59.346;18.058;2023-02-11T15:20:12;2.88;;;0.73;;
51036;SDS011;37064;59.346;18.058;2023-02-11T15:22:41;2.03;;;1.30;;
51036;SDS011;37064;59.346;18.058;2023-02-11T15:25:08;1.73;;;0.80;;
51036;SDS011;37064;59.346;18.058;2023-02-11T15:27:42;1.70;;;0.90;;
51036;SDS011;37064;59.346;18.058;2023-02-11T15:32:47;4.53;;;1.10;;
51036;SDS011;37064;59.346;18.058;2023-02-11T15:35:14;5.32;;;1.40;;
51036;SDS011;37064;59.346;18.058;2023-02-11T15:37:41;4.32;;;1.17;;
51036;SDS011;37064;59.346;18.058;2023-02-11T15:40:09;3.10;;;1.00;;
51036;SDS011;37064;59.346;18.058;2023-02-11T15:42:36;7.55;;;1.38;;
51036;SDS011;37064;59.346;18.058;2023-02-11T15:45:09;3.83;;;1.00;;
51036;SDS011;37064;59.346;18.058;2023-02-11T15:47:36;11.63;;;1.35;;
51036;SDS011;37064;59.346;18.058;2023-02-11T15:50:03;6.43;;;0.85;;
51036;SDS011;37064;59.346;18.058;2023-02-11T15:52:30;5.85;;;1.15;;
51036;SDS011;37064;59.346;18.058;2023-02-11T15:54:57;2.35;;;0.95;;
51036;SDS011;37064;59.346;18.058;2023-02-11T15:57:25;3.58;;;0.85;;
51036;SDS011;37064;59.346;18.058;2023-02-11T15:59:52;9.60;;;1.23;;
51036;SDS011;37064;59.346;18.058;2023-02-11T16:02:20;4.70;;;0.90;;
51036;SDS011;37064;59.346;18.058;2023-02-11T16:04:50;6.47;;;0.90;;
51036;SDS011;37064;59.346;18.058;2023-02-11T16:10:01;4.32;;;0.90;;
51036;SDS011;37064;59.346;18.058;2023-02-11T16:12:27;3.95;;;1.38;;
51036;SDS011;37064;59.346;18.058;2023-02-11T16:14:54;2.40;;;1.00;;
51036;SDS011;37064;59.346;18.058;2023-02-11T16:17:24;7.47;;;1.52;;
51036;SDS011;37064;59.346;18.058;2023-02-11T16:19:52;1.67;;;1.20;;
51036;SDS011;37064;59.346;18.058;2023-02-11T16:22:19;3.15;;;0.98;;
51036;SDS011;37064;59.346;18.058;2023-02-11T16:24:48;4.93;;;1.35;;
51036;SDS011;37064;59.346;18.058;2023-02-11T16:27:26;5.93;;;2.10;;
51036;SDS011;37064;59.346;18.058;2023-02-11T16:29:54;3.40;;;1.30;;
51036;SDS011;37064;59.346;18.058;2023-02-11T16:32:27;3.92;;;1.17;;
51036;SDS011;37064;59.346;18.058;2023-02-11T16:34:54;5.78;;;1.23;;
51036;SDS011;37064;59.346;18.058;2023-02-11T16:37:21;4.18;;;1.33;;
51036;SDS011;37064;59.346;18.058;2023-02-11T16:39:48;4.88;;;1.20;;
51036;SDS011;37064;59.346;18.058;2023-02-11T16:42:14;6.43;;;1.60;;
51036;SDS011;37064;59.346;18.058;2023-02-11T16:44:40;5.43;;;1.60;;
51036;SDS011;37064;59.346;18.058;2023-02-11T16:47:06;5.88;;;1.63;;
51036;SDS011;37064;59.346;18.058;2023-02-11T16:49:33;5.60;;;1.25;;
51036;SDS011;37064;59.346;18.058;2023-02-11T16:52:00;10.65;;;1.63;;
51036;SDS011;37064;59.346;18.058;2023-02-11T16:54:28;3.25;;;1.63;;
51036;SDS011;37064;59.346;18.058;2023-02-11T16:56:54;10.27;;;1.70;;
51036;SDS011;37064;59.346;18.058;2023-02-11T16:59:21;4.63;;;1.50;;
51036;SDS011;37064;59.346;18.058;2023-02-11T17:01:47;10.13;;;2.45;;
51036;SDS011;37064;59.346;18.058;2023-02-11T17:04:18;3.35;;;1.40;;
51036;SDS011;37064;59.346;18.058;2023-02-11T17:06:45;3.95;;;1.50;;
51036;SDS011;37064;59.346;18.058;2023-02-11T17:09:17;3.60;;;1.17;;
51036;SDS011;37064;59.346;18.058;2023-02-11T17:11:43;15.73;;;2.72;;
51036;SDS011;37064;59.346;18.058;2023-02-11T17:14:09;8.27;;;1.83;;
51036;SDS011;37064;59.346;18.058;2023-02-11T17:16:35;4.95;;;1.63;;
51036;SDS011;37064;59.346;18.058;2023-02-11T17:19:01;3.58;;;1.90;;
51036;SDS011;37064;59.346;18.058;2023-02-11T17:21:27;4.75;;;1.30;;
51036;SDS011;37064;59.346;18.058;2023-02-11T17:23:55;5.82;;;2.28;;
51036;SDS011;37064;59.346;18.058;2023-02-11T17:26:21;3.60;;;1.67;;
51036;SDS011;37064;59.346;18.058;2023-02-11T17:28:47;5.70;;;2.10;;
51036;SDS011;37064;59.346;18.058;2023-02-11T17:31:13;5.53;;;1.73;;
51036;SDS011;37064;59.346;18.058;2023-02-11T17:33:39;5.60;;;2.30;;
51036;SDS011;37064;59.346;18.058;2023-02-11T17:36:06;5.88;;;2.20;;
51036;SDS011;37064;59.346;18.058;2023-02-11T17:38:33;6.78;;;2.92;;